sensor_id;sensor_type;location;lat;lon;timestamp;temperature;humidity
39675;DHT22;27790;50.840;4.386;2022-12-29T00:01:32;12.50;99.90
39675;DHT22;27790;50.840;4.386;2022-12-29T00:03:58;12.50;99.90
39675;DHT22;27790;50.840;4.386;2022-12-29T00:06:23;12.50;99.90
39675;DHT22;27790;50.840;4.386;2022-12-29T00:08:49;12.50;99.90
39675;DHT22;27790;50.840;4.386;2022-12-29T00:11:18;12.50;99.90
39675;DHT22;27790;50.840;4.386;2022-12-29T00:13:44;12.60;99.90
39675;DHT22;27790;50.840;4.386;2022-12-29T00:16:21;12.70;99.90
39675;DHT22;27790;50.840;4.386;2022-12-29T00:18:46;12.70;99.90
39675;DHT22;27790;50.840;4.386;2022-12-29T00:21:16;12.80;99.90
39675;DHT22;27790;50.840;4.386;2022-12-29T00:23:53;12.80;99.90
39675;DHT22;27790;50.840;4.386;2022-12-29T00:26:30;12.90;99.90
39675;DHT22;27790;50.840;4.386;2022-12-29T00:29:07;12.90;99.90
39675;DHT22;27790;50.840;4.386;2022-12-29T00:31:44;12.90;99.90
39675;DHT22;27790;50.840;4.386;2022-12-29T00:34:30;12.90;99.90
39675;DHT22;27790;50.840;4.386;2022-12-29T00:37:06;12.90;99.90
39675;DHT22;27790;50.840;4.386;2022-12-29T00:39:32;12.80;99.90
39675;DHT22;27790;50.840;4.386;2022-12-29T00:42:09;12.90;99.90
39675;DHT22;27790;50.840;4.386;2022-12-29T00:44:45;13.00;99.90
39675;DHT22;27790;50.840;4.386;2022-12-29T00:47:11;13.10;99.90
39675;DHT22;27790;50.840;4.386;2022-12-29T00:49:36;13.10;99.90
39675;DHT22;27790;50.840;4.386;2022-12-29T00:52:05;13.00;99.90
39675;DHT22;27790;50.840;4.386;2022-12-29T00:54:37;13.10;99.90
39675;DHT22;27790;50.840;4.386;2022-12-29T00:57:04;13.10;99.90
39675;DHT22;27790;50.840;4.386;2022-12-29T00:59:30;13.20;99.90
39675;DHT22;27790;50.840;4.386;2022-12-29T01:01:56;13.20;99.90
39675;DHT22;27790;50.840;4.386;2022-12-29T01:04:23;13.10;99.90
39675;DHT22;27790;50.840;4.386;2022-12-29T01:06:50;13.10;99.90
39675;DHT22;27790;50.840;4.386;2022-12-29T01:09:16;13.10;99.90
39675;DHT22;27790;50.840;4.386;2022-12-29T01:11:53;12.90;99.90
39675;DHT22;27790;50.840;4.386;2022-12-29T01:14:19;13.00;99.90
39675;DHT22;27790;50.840;4.386;2022-12-29T01:16:46;13.00;99.90
39675;DHT22;27790;50.840;4.386;2022-12-29T01:19:12;12.90;99.90
39675;DHT22;27790;50.840;4.386;2022-12-29T01:21:38;12.80;99.90
39675;DHT22;27790;50.840;4.386;2022-12-29T01:24:04;12.80;99.90
39675;DHT22;27790;50.840;4.386;2022-12-29T01:26:29;12.70;99.90
39675;DHT22;27790;50.840;4.386;2022-12-29T01:28:55;12.50;99.90
39675;DHT22;27790;50.840;4.386;2022-12-29T01:31:21;12.40;99.90
39675;DHT22;27790;50.840;4.386;2022-12-29T01:33:46;12.20;99.90
39675;DHT22;27790;50.840;4.386;2022-12-29T01:36:14;12.10;99.90
39675;DHT22;27790;50.840;4.386;2022-12-29T01:38:41;12.00;99.90
39675;DHT22;27790;50.840;4.386;2022-12-29T01:41:08;12.00;99.90
39675;DHT22;27790;50.840;4.386;2022-12-29T01:43:53;12.00;99.90
39675;DHT22;27790;50.840;4.386;2022-12-29T01:48:52;12.00;99.90
39675;DHT22;27790;50.840;4.386;2022-12-29T01:51:20;12.10;99.90
39675;DHT22;27790;50.840;4.386;2022-12-29T01:53:47;12.10;99.90
39675;DHT22;27790;50.840;4.386;2022-12-29T01:56:15;12.10;99.90
39675;DHT22;27790;50.840;4.386;2022-12-29T01:58:47;12.20;99.90
39675;DHT22;27790;50.840;4.386;2022-12-29T02:01:15;12.20;99.90
39675;DHT22;27790;50.840;4.386;2022-12-29T02:03:43;12.30;99.90
39675;DHT22;27790;50.840;4.386;2022-12-29T02:08:40;12.30;99.90
39675;DHT22;27790;50.840;4.386;2022-12-29T02:11:07;12.30;99.90
39675;DHT22;27790;50.840;4.386;2022-12-29T02:13:33;12.30;99.90
39675;DHT22;27790;50.840;4.386;2022-12-29T02:31:59;11.60;99.90
39675;DHT22;27790;50.840;4.386;2022-12-29T02:37:22;11.40;99.90
39675;DHT22;27790;50.840;4.386;2022-12-29T02:40:23;11.40;99.90
39675;DHT22;27790;50.840;4.386;2022-12-29T02:42:55;11.40;99.90
39675;DHT22;27790;50.840;4.386;2022-12-29T02:51:18;11.10;99.90
39675;DHT22;27790;50.840;4.386;2022-12-29T02:53:45;11.10;99.90
39675;DHT22;27790;50.840;4.386;2022-12-29T02:56:22;11.00;99.90
39675;DHT22;27790;50.840;4.386;2022-12-29T02:58:48;11.00;99.90
39675;DHT22;27790;50.840;4.386;2022-12-29T03:09:21;10.90;99.90
39675;DHT22;27790;50.840;4.386;2022-12-29T03:20:07;10.70;99.90
39675;DHT22;27790;50.840;4.386;2022-12-29T03:22:36;10.70;99.90
39675;DHT22;27790;50.840;4.386;2022-12-29T03:25:13;10.80;99.90
39675;DHT22;27790;50.840;4.386;2022-12-29T03:27:43;10.80;99.90
39675;DHT22;27790;50.840;4.386;2022-12-29T03:30:10;10.70;99.90
39675;DHT22;27790;50.840;4.386;2022-12-29T03:33:04;10.70;99.90
39675;DHT22;27790;50.840;4.386;2022-12-29T03:35:35;10.90;99.90
39675;DHT22;27790;50.840;4.386;2022-12-29T03:38:33;10.90;99.90
39675;DHT22;27790;50.840;4.386;2022-12-29T03:41:01;10.90;99.90
39675;DHT22;27790;50.840;4.386;2022-12-29T03:43:29;11.00;99.90
39675;DHT22;27790;50.840;4.386;2022-12-29T03:45:55;11.10;99.90
39675;DHT22;27790;50.840;4.386;2022-12-29T03:48:20;11.00;99.90
39675;DHT22;27790;50.840;4.386;2022-12-29T03:50:46;11.10;99.90
39675;DHT22;27790;50.840;4.386;2022-12-29T03:53:11;11.10;99.90
39675;DHT22;27790;50.840;4.386;2022-12-29T03:55:37;11.10;99.90
39675;DHT22;27790;50.840;4.386;2022-12-29T03:58:03;11.20;99.90
39675;DHT22;27790;50.840;4.386;2022-12-29T04:00:28;11.10;99.90
39675;DHT22;27790;50.840;4.386;2022-12-29T04:02:54;11.20;99.90
39675;DHT22;27790;50.840;4.386;2022-12-29T04:05:23;11.20;99.90
39675;DHT22;27790;50.840;4.386;2022-12-29T04:07:48;11.10;99.90
39675;DHT22;27790;50.840;4.386;2022-12-29T04:10:14;11.00;99.90
39675;DHT22;27790;50.840;4.386;2022-12-29T04:12:39;11.00;99.90
39675;DHT22;27790;50.840;4.386;2022-12-29T04:15:08;11.00;99.90
39675;DHT22;27790;50.840;4.386;2022-12-29T04:17:33;11.00;99.90
39675;DHT22;27790;50.840;4.386;2022-12-29T04:19:59;11.00;99.90
39675;DHT22;27790;50.840;4.386;2022-12-29T04:22:34;10.90;99.90
39675;DHT22;27790;50.840;4.386;2022-12-29T04:25:00;10.90;99.90
39675;DHT22;27790;50.840;4.386;2022-12-29T04:27:25;10.90;99.90
39675;DHT22;27790;50.840;4.386;2022-12-29T04:29:51;11.00;99.90
39675;DHT22;27790;50.840;4.386;2022-12-29T04:32:17;11.00;99.90
39675;DHT22;27790;50.840;4.386;2022-12-29T04:34:42;11.00;99.90
39675;DHT22;27790;50.840;4.386;2022-12-29T04:37:08;11.00;99.90
39675;DHT22;27790;50.840;4.386;2022-12-29T04:39:33;11.00;99.90
39675;DHT22;27790;50.840;4.386;2022-12-29T04:41:59;11.10;99.90
39675;DHT22;27790;50.840;4.386;2022-12-29T04:44:25;11.20;99.90
39675;DHT22;27790;50.840;4.386;2022-12-29T04:46:50;11.20;99.90
39675;DHT22;27790;50.840;4.386;2022-12-29T04:49:16;11.30;99.90
39675;DHT22;27790;50.840;4.386;2022-12-29T04:51:41;11.20;99.90
39675;DHT22;27790;50.840;4.386;2022-12-29T04:54:07;11.40;99.90
39675;DHT22;27790;50.840;4.386;2022-12-29T04:56:32;11.50;99.90
39675;DHT22;27790;50.840;4.386;2022-12-29T04:58:58;11.50;99.90
39675;DHT22;27790;50.840;4.386;2022-12-29T05:01:24;11.60;99.90
39675;DHT22;27790;50.840;4.386;2022-12-29T05:03:50;11.70;99.90
39675;DHT22;27790;50.840;4.386;2022-12-29T05:06:16;11.80;99.90
39675;DHT22;27790;50.840;4.386;2022-12-29T05:08:42;11.70;99.90
39675;DHT22;27790;50.840;4.386;2022-12-29T05:11:07;11.80;99.90
39675;DHT22;27790;50.840;4.386;2022-12-29T05:13:33;11.70;99.90
39675;DHT22;27790;50.840;4.386;2022-12-29T05:15:58;11.70;99.90
39675;DHT22;27790;50.840;4.386;2022-12-29T05:18:24;11.60;99.90
39675;DHT22;27790;50.840;4.386;2022-12-29T05:20:50;11.70;99.90
39675;DHT22;27790;50.840;4.386;2022-12-29T05:23:16;11.80;99.90
39675;DHT22;27790;50.840;4.386;2022-12-29T05:25:43;11.70;99.90
39675;DHT22;27790;50.840;4.386;2022-12-29T05:28:08;11.70;99.90
39675;DHT22;27790;50.840;4.386;2022-12-29T05:30:34;11.80;99.90
39675;DHT22;27790;50.840;4.386;2022-12-29T05:32:59;11.80;99.90
39675;DHT22;27790;50.840;4.386;2022-12-29T05:35:25;11.80;99.90
39675;DHT22;27790;50.840;4.386;2022-12-29T05:37:50;11.80;99.90
39675;DHT22;27790;50.840;4.386;2022-12-29T05:40:16;11.90;99.90
39675;DHT22;27790;50.840;4.386;2022-12-29T05:42:42;11.90;99.90
39675;DHT22;27790;50.840;4.386;2022-12-29T05:45:08;11.90;99.90
39675;DHT22;27790;50.840;4.386;2022-12-29T05:47:34;11.90;99.90
39675;DHT22;27790;50.840;4.386;2022-12-29T05:50:00;11.80;99.90
39675;DHT22;27790;50.840;4.386;2022-12-29T05:52:25;11.90;99.90
39675;DHT22;27790;50.840;4.386;2022-12-29T05:54:51;11.70;99.90
39675;DHT22;27790;50.840;4.386;2022-12-29T05:57:17;11.80;99.90
39675;DHT22;27790;50.840;4.386;2022-12-29T05:59:42;11.70;99.90
39675;DHT22;27790;50.840;4.386;2022-12-29T06:02:09;11.70;99.90
39675;DHT22;27790;50.840;4.386;2022-12-29T06:04:35;11.70;99.90
39675;DHT22;27790;50.840;4.386;2022-12-29T06:07:00;11.60;99.90
39675;DHT22;27790;50.840;4.386;2022-12-29T06:09:26;11.60;99.90
39675;DHT22;27790;50.840;4.386;2022-12-29T06:11:51;11.70;99.90
39675;DHT22;27790;50.840;4.386;2022-12-29T06:14:17;11.70;99.90
39675;DHT22;27790;50.840;4.386;2022-12-29T06:16:42;11.60;99.90
39675;DHT22;27790;50.840;4.386;2022-12-29T06:19:08;11.60;99.90
39675;DHT22;27790;50.840;4.386;2022-12-29T06:21:34;11.50;99.90
39675;DHT22;27790;50.840;4.386;2022-12-29T06:23:59;11.40;99.90
39675;DHT22;27790;50.840;4.386;2022-12-29T06:26:25;11.30;99.90
39675;DHT22;27790;50.840;4.386;2022-12-29T06:28:50;11.30;99.90
39675;DHT22;27790;50.840;4.386;2022-12-29T06:31:16;11.30;99.90
39675;DHT22;27790;50.840;4.386;2022-12-29T06:33:42;11.50;99.90
39675;DHT22;27790;50.840;4.386;2022-12-29T06:36:07;11.40;99.90
39675;DHT22;27790;50.840;4.386;2022-12-29T06:38:33;11.50;99.90
39675;DHT22;27790;50.840;4.386;2022-12-29T06:41:03;11.60;99.90
39675;DHT22;27790;50.840;4.386;2022-12-29T06:43:29;11.70;99.90
39675;DHT22;27790;50.840;4.386;2022-12-29T06:45:55;11.70;99.90
39675;DHT22;27790;50.840;4.386;2022-12-29T06:48:21;11.80;99.90
39675;DHT22;27790;50.840;4.386;2022-12-29T06:50:47;11.80;99.90
39675;DHT22;27790;50.840;4.386;2022-12-29T06:53:13;11.90;99.90
39675;DHT22;27790;50.840;4.386;2022-12-29T06:55:38;11.90;99.90
39675;DHT22;27790;50.840;4.386;2022-12-29T06:58:04;11.90;99.90
39675;DHT22;27790;50.840;4.386;2022-12-29T07:00:29;11.80;99.90
39675;DHT22;27790;50.840;4.386;2022-12-29T07:02:55;11.80;99.90
39675;DHT22;27790;50.840;4.386;2022-12-29T07:05:23;11.80;99.90
39675;DHT22;27790;50.840;4.386;2022-12-29T07:07:50;11.80;99.90
39675;DHT22;27790;50.840;4.386;2022-12-29T07:10:16;11.80;99.90
39675;DHT22;27790;50.840;4.386;2022-12-29T07:12:41;11.90;99.90
39675;DHT22;27790;50.840;4.386;2022-12-29T07:15:07;11.80;99.90
39675;DHT22;27790;50.840;4.386;2022-12-29T07:17:33;11.70;99.90
39675;DHT22;27790;50.840;4.386;2022-12-29T07:19:58;11.60;99.90
39675;DHT22;27790;50.840;4.386;2022-12-29T07:22:24;11.80;99.90
39675;DHT22;27790;50.840;4.386;2022-12-29T07:24:50;11.80;99.90
39675;DHT22;27790;50.840;4.386;2022-12-29T07:27:15;11.80;99.90
39675;DHT22;27790;50.840;4.386;2022-12-29T07:29:41;11.80;99.90
39675;DHT22;27790;50.840;4.386;2022-12-29T07:32:06;11.70;99.90
39675;DHT22;27790;50.840;4.386;2022-12-29T07:34:32;11.80;99.90
39675;DHT22;27790;50.840;4.386;2022-12-29T07:36:57;11.80;99.90
39675;DHT22;27790;50.840;4.386;2022-12-29T07:39:23;11.80;99.90
39675;DHT22;27790;50.840;4.386;2022-12-29T07:41:49;11.80;99.90
39675;DHT22;27790;50.840;4.386;2022-12-29T07:44:14;11.80;99.90
39675;DHT22;27790;50.840;4.386;2022-12-29T07:46:40;11.80;99.90
39675;DHT22;27790;50.840;4.386;2022-12-29T07:49:05;12.00;99.90
39675;DHT22;27790;50.840;4.386;2022-12-29T07:51:31;11.90;99.90
39675;DHT22;27790;50.840;4.386;2022-12-29T07:53:57;11.80;99.90
39675;DHT22;27790;50.840;4.386;2022-12-29T07:56:25;11.80;99.90
39675;DHT22;27790;50.840;4.386;2022-12-29T07:58:51;11.90;99.90
39675;DHT22;27790;50.840;4.386;2022-12-29T08:01:17;11.90;99.90
39675;DHT22;27790;50.840;4.386;2022-12-29T08:03:42;11.90;99.90
39675;DHT22;27790;50.840;4.386;2022-12-29T08:06:11;11.90;99.90
39675;DHT22;27790;50.840;4.386;2022-12-29T08:08:37;11.90;99.90
39675;DHT22;27790;50.840;4.386;2022-12-29T08:11:03;11.80;99.90
39675;DHT22;27790;50.840;4.386;2022-12-29T08:13:29;11.90;99.90
39675;DHT22;27790;50.840;4.386;2022-12-29T08:15:54;11.90;99.90
39675;DHT22;27790;50.840;4.386;2022-12-29T08:18:20;11.90;99.90
39675;DHT22;27790;50.840;4.386;2022-12-29T08:20:46;11.90;99.90
39675;DHT22;27790;50.840;4.386;2022-12-29T08:23:11;11.80;99.90
39675;DHT22;27790;50.840;4.386;2022-12-29T08:25:37;11.70;99.90
39675;DHT22;27790;50.840;4.386;2022-12-29T08:28:02;11.70;99.90
39675;DHT22;27790;50.840;4.386;2022-12-29T08:30:28;11.70;99.90
39675;DHT22;27790;50.840;4.386;2022-12-29T08:32:53;11.80;99.90
39675;DHT22;27790;50.840;4.386;2022-12-29T08:35:19;12.00;99.90
39675;DHT22;27790;50.840;4.386;2022-12-29T08:37:44;12.00;99.90
39675;DHT22;27790;50.840;4.386;2022-12-29T08:40:10;11.90;99.90
39675;DHT22;27790;50.840;4.386;2022-12-29T08:45:06;11.90;99.90
39675;DHT22;27790;50.840;4.386;2022-12-29T08:47:32;11.80;99.90
39675;DHT22;27790;50.840;4.386;2022-12-29T08:49:57;11.80;99.90
39675;DHT22;27790;50.840;4.386;2022-12-29T08:52:23;11.80;99.90
39675;DHT22;27790;50.840;4.386;2022-12-29T08:54:48;11.90;99.90
39675;DHT22;27790;50.840;4.386;2022-12-29T08:57:14;11.90;99.90
39675;DHT22;27790;50.840;4.386;2022-12-29T08:59:39;11.80;99.90
39675;DHT22;27790;50.840;4.386;2022-12-29T09:02:05;11.90;99.90
39675;DHT22;27790;50.840;4.386;2022-12-29T09:04:31;11.90;99.90
39675;DHT22;27790;50.840;4.386;2022-12-29T09:06:57;11.90;99.90
39675;DHT22;27790;50.840;4.386;2022-12-29T09:09:22;11.90;99.90
39675;DHT22;27790;50.840;4.386;2022-12-29T09:11:48;11.70;99.90
39675;DHT22;27790;50.840;4.386;2022-12-29T09:14:14;11.80;99.90
39675;DHT22;27790;50.840;4.386;2022-12-29T09:16:40;11.90;99.90
39675;DHT22;27790;50.840;4.386;2022-12-29T09:19:16;12.00;99.90
39675;DHT22;27790;50.840;4.386;2022-12-29T09:21:42;12.00;99.90
39675;DHT22;27790;50.840;4.386;2022-12-29T09:24:07;12.00;99.90
39675;DHT22;27790;50.840;4.386;2022-12-29T09:26:33;12.00;99.90
39675;DHT22;27790;50.840;4.386;2022-12-29T09:28:59;11.90;99.90
39675;DHT22;27790;50.840;4.386;2022-12-29T09:31:24;11.80;99.90
39675;DHT22;27790;50.840;4.386;2022-12-29T09:33:50;11.80;99.90
39675;DHT22;27790;50.840;4.386;2022-12-29T09:36:15;11.80;99.90
39675;DHT22;27790;50.840;4.386;2022-12-29T09:38:41;11.80;99.90
39675;DHT22;27790;50.840;4.386;2022-12-29T09:41:14;11.90;99.90
39675;DHT22;27790;50.840;4.386;2022-12-29T09:46:34;11.90;99.90
39675;DHT22;27790;50.840;4.386;2022-12-29T09:49:09;12.10;99.90
39675;DHT22;27790;50.840;4.386;2022-12-29T09:51:41;12.20;99.90
39675;DHT22;27790;50.840;4.386;2022-12-29T09:54:28;12.20;99.90
39675;DHT22;27790;50.840;4.386;2022-12-29T09:56:56;12.30;99.90
39675;DHT22;27790;50.840;4.386;2022-12-29T09:59:39;12.40;99.90
39675;DHT22;27790;50.840;4.386;2022-12-29T10:04:42;12.40;99.90
39675;DHT22;27790;50.840;4.386;2022-12-29T10:07:26;12.50;99.90
39675;DHT22;27790;50.840;4.386;2022-12-29T10:12:53;12.50;99.90
39675;DHT22;27790;50.840;4.386;2022-12-29T10:15:45;12.40;99.90
39675;DHT22;27790;50.840;4.386;2022-12-29T10:23:36;12.40;99.90
39675;DHT22;27790;50.840;4.386;2022-12-29T10:26:04;12.30;99.90
39675;DHT22;27790;50.840;4.386;2022-12-29T10:28:34;12.40;99.90
39675;DHT22;27790;50.840;4.386;2022-12-29T10:31:01;12.50;99.90
39675;DHT22;27790;50.840;4.386;2022-12-29T10:33:34;12.60;99.90
39675;DHT22;27790;50.840;4.386;2022-12-29T10:36:02;12.70;99.90
39675;DHT22;27790;50.840;4.386;2022-12-29T10:38:35;12.80;99.90
39675;DHT22;27790;50.840;4.386;2022-12-29T10:43:46;12.60;99.90
39675;DHT22;27790;50.840;4.386;2022-12-29T10:46:13;12.60;99.90
39675;DHT22;27790;50.840;4.386;2022-12-29T10:48:40;12.70;99.90
39675;DHT22;27790;50.840;4.386;2022-12-29T10:51:06;12.80;99.90
39675;DHT22;27790;50.840;4.386;2022-12-29T10:56:15;13.00;99.90
39675;DHT22;27790;50.840;4.386;2022-12-29T10:58:42;12.90;99.90
39675;DHT22;27790;50.840;4.386;2022-12-29T11:01:11;13.00;99.90
39675;DHT22;27790;50.840;4.386;2022-12-29T11:08:50;12.90;99.90
39675;DHT22;27790;50.840;4.386;2022-12-29T11:11:22;12.90;99.90
39675;DHT22;27790;50.840;4.386;2022-12-29T11:13:49;13.00;99.90
39675;DHT22;27790;50.840;4.386;2022-12-29T11:16:14;13.00;99.90
39675;DHT22;27790;50.840;4.386;2022-12-29T11:18:51;13.20;99.90
39675;DHT22;27790;50.840;4.386;2022-12-29T11:21:26;13.50;99.90
39675;DHT22;27790;50.840;4.386;2022-12-29T11:26:23;13.60;99.90
39675;DHT22;27790;50.840;4.386;2022-12-29T11:31:26;13.50;99.90
39675;DHT22;27790;50.840;4.386;2022-12-29T11:33:51;13.20;99.90
39675;DHT22;27790;50.840;4.386;2022-12-29T11:36:17;13.00;99.90
39675;DHT22;27790;50.840;4.386;2022-12-29T11:38:49;12.90;99.90
39675;DHT22;27790;50.840;4.386;2022-12-29T11:41:20;12.60;99.90
39675;DHT22;27790;50.840;4.386;2022-12-29T11:43:46;12.50;99.90
39675;DHT22;27790;50.840;4.386;2022-12-29T11:46:14;12.40;99.90
39675;DHT22;27790;50.840;4.386;2022-12-29T11:48:41;12.40;99.90
39675;DHT22;27790;50.840;4.386;2022-12-29T11:51:07;12.30;99.90
39675;DHT22;27790;50.840;4.386;2022-12-29T11:56:16;12.40;99.90
39675;DHT22;27790;50.840;4.386;2022-12-29T11:58:42;12.50;99.90
39675;DHT22;27790;50.840;4.386;2022-12-29T12:01:13;12.50;99.90
39675;DHT22;27790;50.840;4.386;2022-12-29T12:03:45;12.40;99.90
39675;DHT22;27790;50.840;4.386;2022-12-29T12:06:14;12.40;99.90
39675;DHT22;27790;50.840;4.386;2022-12-29T12:08:42;12.40;99.90
39675;DHT22;27790;50.840;4.386;2022-12-29T12:16:22;12.30;99.90
39675;DHT22;27790;50.840;4.386;2022-12-29T12:23:57;12.20;99.90
39675;DHT22;27790;50.840;4.386;2022-12-29T12:29:04;12.30;99.90
39675;DHT22;27790;50.840;4.386;2022-12-29T12:34:10;12.40;99.90
39675;DHT22;27790;50.840;4.386;2022-12-29T12:41:49;12.40;99.90
39675;DHT22;27790;50.840;4.386;2022-12-29T12:44:19;12.50;99.90
39675;DHT22;27790;50.840;4.386;2022-12-29T13:00:17;12.50;99.90
39675;DHT22;27790;50.840;4.386;2022-12-29T13:02:29;12.50;99.90
39675;DHT22;27790;50.840;4.386;2022-12-29T13:28:00;12.50;99.90
39675;DHT22;27790;50.840;4.386;2022-12-29T13:30:29;12.40;99.90
39675;DHT22;27790;50.840;4.386;2022-12-29T13:35:32;12.30;99.90
39675;DHT22;27790;50.840;4.386;2022-12-29T13:38:03;12.30;99.90
39675;DHT22;27790;50.840;4.386;2022-12-29T13:40:32;12.30;99.90
39675;DHT22;27790;50.840;4.386;2022-12-29T13:42:59;12.30;99.90
39675;DHT22;27790;50.840;4.386;2022-12-29T13:45:26;12.20;99.90
39675;DHT22;27790;50.840;4.386;2022-12-29T13:47:58;12.20;99.90
39675;DHT22;27790;50.840;4.386;2022-12-29T13:50:26;12.20;99.90
39675;DHT22;27790;50.840;4.386;2022-12-29T13:55:32;12.20;99.90
39675;DHT22;27790;50.840;4.386;2022-12-29T13:58:07;12.00;99.90
39675;DHT22;27790;50.840;4.386;2022-12-29T14:06:01;11.90;99.90
39675;DHT22;27790;50.840;4.386;2022-12-29T14:08:28;12.00;99.90
39675;DHT22;27790;50.840;4.386;2022-12-29T14:10:53;12.00;99.90
39675;DHT22;27790;50.840;4.386;2022-12-29T14:13:20;12.00;99.90
39675;DHT22;27790;50.840;4.386;2022-12-29T14:15:54;12.00;99.90
39675;DHT22;27790;50.840;4.386;2022-12-29T14:18:29;12.00;99.90
39675;DHT22;27790;50.840;4.386;2022-12-29T14:23:30;12.10;99.90
39675;DHT22;27790;50.840;4.386;2022-12-29T14:28:33;11.90;99.90
39675;DHT22;27790;50.840;4.386;2022-12-29T14:30:59;11.90;99.90
39675;DHT22;27790;50.840;4.386;2022-12-29T14:33:26;12.00;99.90
39675;DHT22;27790;50.840;4.386;2022-12-29T14:35:52;12.10;99.90
39675;DHT22;27790;50.840;4.386;2022-12-29T14:38:19;12.20;99.90
39675;DHT22;27790;50.840;4.386;2022-12-29T14:40:46;12.20;99.90
39675;DHT22;27790;50.840;4.386;2022-12-29T14:43:13;12.10;99.90
39675;DHT22;27790;50.840;4.386;2022-12-29T14:45:42;12.00;99.90
39675;DHT22;27790;50.840;4.386;2022-12-29T14:50:44;12.00;99.90
39675;DHT22;27790;50.840;4.386;2022-12-29T14:55:47;11.50;99.90
39675;DHT22;27790;50.840;4.386;2022-12-29T14:58:19;11.30;99.90
39675;DHT22;27790;50.840;4.386;2022-12-29T15:00:46;11.20;99.90
39675;DHT22;27790;50.840;4.386;2022-12-29T15:05:55;11.20;99.90
39675;DHT22;27790;50.840;4.386;2022-12-29T15:08:25;11.10;99.90
39675;DHT22;27790;50.840;4.386;2022-12-29T15:10:53;11.00;99.90
39675;DHT22;27790;50.840;4.386;2022-12-29T15:13:24;10.90;99.90
39675;DHT22;27790;50.840;4.386;2022-12-29T15:15:50;10.70;99.90
39675;DHT22;27790;50.840;4.386;2022-12-29T15:18:25;10.50;99.90
39675;DHT22;27790;50.840;4.386;2022-12-29T15:20:52;10.40;99.90
39675;DHT22;27790;50.840;4.386;2022-12-29T15:23:18;10.20;99.90
39675;DHT22;27790;50.840;4.386;2022-12-29T15:25:47;10.20;99.90
39675;DHT22;27790;50.840;4.386;2022-12-29T15:28:14;10.10;99.90
39675;DHT22;27790;50.840;4.386;2022-12-29T15:33:21;10.00;99.90
39675;DHT22;27790;50.840;4.386;2022-12-29T15:35:49;10.00;99.90
39675;DHT22;27790;50.840;4.386;2022-12-29T15:38:19;9.90;99.90
39675;DHT22;27790;50.840;4.386;2022-12-29T15:40:45;9.90;99.90
39675;DHT22;27790;50.840;4.386;2022-12-29T15:43:18;9.80;99.90
39675;DHT22;27790;50.840;4.386;2022-12-29T15:45:47;9.80;99.90
39675;DHT22;27790;50.840;4.386;2022-12-29T15:48:18;9.90;99.90
39675;DHT22;27790;50.840;4.386;2022-12-29T15:50:44;9.80;99.90
39675;DHT22;27790;50.840;4.386;2022-12-29T15:53:12;9.90;99.90
39675;DHT22;27790;50.840;4.386;2022-12-29T15:55:40;10.00;99.90
39675;DHT22;27790;50.840;4.386;2022-12-29T16:00:46;10.20;99.90
39675;DHT22;27790;50.840;4.386;2022-12-29T16:03:12;10.20;99.90
39675;DHT22;27790;50.840;4.386;2022-12-29T16:05:39;10.20;99.90
39675;DHT22;27790;50.840;4.386;2022-12-29T16:10:41;10.00;99.90
39675;DHT22;27790;50.840;4.386;2022-12-29T16:13:13;9.90;99.90
39675;DHT22;27790;50.840;4.386;2022-12-29T16:15:40;9.90;99.90
39675;DHT22;27790;50.840;4.386;2022-12-29T16:18:11;9.80;99.90
39675;DHT22;27790;50.840;4.386;2022-12-29T16:20:40;9.80;99.90
39675;DHT22;27790;50.840;4.386;2022-12-29T16:23:09;9.70;99.90
39675;DHT22;27790;50.840;4.386;2022-12-29T16:25:42;9.70;99.90
39675;DHT22;27790;50.840;4.386;2022-12-29T16:30:44;9.80;99.90
39675;DHT22;27790;50.840;4.386;2022-12-29T16:33:28;9.80;99.90
39675;DHT22;27790;50.840;4.386;2022-12-29T16:35:54;9.80;99.90
39675;DHT22;27790;50.840;4.386;2022-12-29T16:38:20;9.80;99.90
39675;DHT22;27790;50.840;4.386;2022-12-29T16:43:19;9.80;99.90
39675;DHT22;27790;50.840;4.386;2022-12-29T16:50:39;9.70;99.90
39675;DHT22;27790;50.840;4.386;2022-12-29T16:53:05;9.80;99.90
39675;DHT22;27790;50.840;4.386;2022-12-29T16:55:32;9.80;99.90
39675;DHT22;27790;50.840;4.386;2022-12-29T16:57:58;9.90;99.90
39675;DHT22;27790;50.840;4.386;2022-12-29T17:00:25;10.00;99.90
39675;DHT22;27790;50.840;4.386;2022-12-29T17:02:51;10.00;99.90
39675;DHT22;27790;50.840;4.386;2022-12-29T17:05:19;10.00;99.90
39675;DHT22;27790;50.840;4.386;2022-12-29T17:07:45;9.90;99.90
39675;DHT22;27790;50.840;4.386;2022-12-29T17:10:11;9.80;99.90
39675;DHT22;27790;50.840;4.386;2022-12-29T17:12:39;9.80;99.90
39675;DHT22;27790;50.840;4.386;2022-12-29T17:15:16;9.80;99.90
39675;DHT22;27790;50.840;4.386;2022-12-29T17:17:46;9.80;99.90
39675;DHT22;27790;50.840;4.386;2022-12-29T17:20:21;9.70;99.90
39675;DHT22;27790;50.840;4.386;2022-12-29T17:22:47;9.80;99.90
39675;DHT22;27790;50.840;4.386;2022-12-29T17:25:16;9.90;99.90
39675;DHT22;27790;50.840;4.386;2022-12-29T17:27:44;9.90;99.90
39675;DHT22;27790;50.840;4.386;2022-12-29T17:30:19;9.90;99.90
39675;DHT22;27790;50.840;4.386;2022-12-29T17:32:52;9.90;99.90
39675;DHT22;27790;50.840;4.386;2022-12-29T17:35:18;9.90;99.90
39675;DHT22;27790;50.840;4.386;2022-12-29T17:37:44;9.80;99.90
39675;DHT22;27790;50.840;4.386;2022-12-29T17:40:28;9.80;99.90
39675;DHT22;27790;50.840;4.386;2022-12-29T17:42:55;9.70;99.90
39675;DHT22;27790;50.840;4.386;2022-12-29T17:45:28;9.70;99.90
39675;DHT22;27790;50.840;4.386;2022-12-29T17:47:54;9.70;99.90
39675;DHT22;27790;50.840;4.386;2022-12-29T17:50:22;9.70;99.90
39675;DHT22;27790;50.840;4.386;2022-12-29T17:52:55;9.60;99.90
39675;DHT22;27790;50.840;4.386;2022-12-29T17:55:22;9.80;99.90
39675;DHT22;27790;50.840;4.386;2022-12-29T17:57:48;9.80;99.90
39675;DHT22;27790;50.840;4.386;2022-12-29T18:00:14;9.70;99.90
39675;DHT22;27790;50.840;4.386;2022-12-29T18:02:40;9.60;99.90
39675;DHT22;27790;50.840;4.386;2022-12-29T18:05:08;9.60;99.90
39675;DHT22;27790;50.840;4.386;2022-12-29T18:07:39;9.60;99.90
39675;DHT22;27790;50.840;4.386;2022-12-29T18:10:06;9.60;99.90
39675;DHT22;27790;50.840;4.386;2022-12-29T18:12:34;9.60;99.90
39675;DHT22;27790;50.840;4.386;2022-12-29T18:15:02;9.50;99.90
39675;DHT22;27790;50.840;4.386;2022-12-29T18:17:28;9.70;99.90
39675;DHT22;27790;50.840;4.386;2022-12-29T18:19:53;9.60;99.90
39675;DHT22;27790;50.840;4.386;2022-12-29T18:22:20;9.50;99.90
39675;DHT22;27790;50.840;4.386;2022-12-29T18:24:46;9.40;99.90
39675;DHT22;27790;50.840;4.386;2022-12-29T18:27:12;9.40;99.90
39675;DHT22;27790;50.840;4.386;2022-12-29T18:29:38;9.30;99.90
39675;DHT22;27790;50.840;4.386;2022-12-29T18:32:04;9.30;99.90
39675;DHT22;27790;50.840;4.386;2022-12-29T18:34:32;9.40;99.90
39675;DHT22;27790;50.840;4.386;2022-12-29T18:36:58;9.40;99.90